sensor_id;sensor_type;location;lat;lon;timestamp;temperature;humidity
33741;DHT22;20065;48.380;10.892;2022-10-22T00:00:42;13.90;99.90
33741;DHT22;20065;48.380;10.892;2022-10-22T00:03:28;13.80;99.90
33741;DHT22;20065;48.380;10.892;2022-10-22T00:06:14;13.70;99.90
33741;DHT22;20065;48.380;10.892;2022-10-22T00:09:01;13.70;99.90
33741;DHT22;20065;48.380;10.892;2022-10-22T00:11:48;13.70;99.90
33741;DHT22;20065;48.380;10.892;2022-10-22T00:14:34;13.70;99.90
33741;DHT22;20065;48.380;10.892;2022-10-22T00:17:20;13.70;99.90
33741;DHT22;20065;48.380;10.892;2022-10-22T00:20:07;13.90;99.90
33741;DHT22;20065;48.380;10.892;2022-10-22T00:22:53;13.90;99.90
33741;DHT22;20065;48.380;10.892;2022-10-22T00:25:39;13.80;99.90
33741;DHT22;20065;48.380;10.892;2022-10-22T00:28:26;13.90;99.90
33741;DHT22;20065;48.380;10.892;2022-10-22T00:31:12;14.00;99.90
33741;DHT22;20065;48.380;10.892;2022-10-22T00:34:00;14.00;99.90
33741;DHT22;20065;48.380;10.892;2022-10-22T00:36:48;14.10;99.90
33741;DHT22;20065;48.380;10.892;2022-10-22T00:39:35;14.20;99.90
33741;DHT22;20065;48.380;10.892;2022-10-22T00:42:26;14.20;99.90
33741;DHT22;20065;48.380;10.892;2022-10-22T00:45:18;14.20;99.90
33741;DHT22;20065;48.380;10.892;2022-10-22T00:48:08;14.30;99.90
33741;DHT22;20065;48.380;10.892;2022-10-22T00:51:05;14.40;99.90
33741;DHT22;20065;48.380;10.892;2022-10-22T00:53:56;14.40;99.90
33741;DHT22;20065;48.380;10.892;2022-10-22T00:56:42;14.40;99.90
33741;DHT22;20065;48.380;10.892;2022-10-22T00:59:30;14.30;99.90
33741;DHT22;20065;48.380;10.892;2022-10-22T01:02:17;14.30;99.90
33741;DHT22;20065;48.380;10.892;2022-10-22T01:05:03;14.20;99.90
33741;DHT22;20065;48.380;10.892;2022-10-22T01:07:51;13.80;99.90
33741;DHT22;20065;48.380;10.892;2022-10-22T01:10:48;13.80;99.90
33741;DHT22;20065;48.380;10.892;2022-10-22T01:17:14;13.70;99.90
33741;DHT22;20065;48.380;10.892;2022-10-22T01:29:36;13.90;99.90
33741;DHT22;20065;48.380;10.892;2022-10-22T01:32:15;13.70;99.90
33741;DHT22;20065;48.380;10.892;2022-10-22T01:35:06;13.70;99.90
33741;DHT22;20065;48.380;10.892;2022-10-22T01:37:57;13.70;99.90
33741;DHT22;20065;48.380;10.892;2022-10-22T01:40:45;13.50;99.90
33741;DHT22;20065;48.380;10.892;2022-10-22T01:43:32;13.50;99.90
33741;DHT22;20065;48.380;10.892;2022-10-22T01:46:20;13.50;99.90
33741;DHT22;20065;48.380;10.892;2022-10-22T01:49:19;13.50;99.90
33741;DHT22;20065;48.380;10.892;2022-10-22T01:58:25;13.50;99.90
33741;DHT22;20065;48.380;10.892;2022-10-22T02:07:20;13.30;99.90
33741;DHT22;20065;48.380;10.892;2022-10-22T02:10:08;13.30;99.90
33741;DHT22;20065;48.380;10.892;2022-10-22T02:12:55;13.20;99.90
33741;DHT22;20065;48.380;10.892;2022-10-22T02:15:44;13.20;99.90
33741;DHT22;20065;48.380;10.892;2022-10-22T02:18:32;13.30;99.90
33741;DHT22;20065;48.380;10.892;2022-10-22T02:21:20;13.20;99.90
33741;DHT22;20065;48.380;10.892;2022-10-22T02:24:07;13.10;99.90
33741;DHT22;20065;48.380;10.892;2022-10-22T02:30:03;12.90;99.90
33741;DHT22;20065;48.380;10.892;2022-10-22T02:33:15;12.90;99.90
33741;DHT22;20065;48.380;10.892;2022-10-22T02:36:03;12.80;99.90
33741;DHT22;20065;48.380;10.892;2022-10-22T02:38:50;12.80;99.90
33741;DHT22;20065;48.380;10.892;2022-10-22T02:41:37;12.70;99.90
33741;DHT22;20065;48.380;10.892;2022-10-22T02:44:23;12.70;99.90
33741;DHT22;20065;48.380;10.892;2022-10-22T02:47:09;12.70;99.90
33741;DHT22;20065;48.380;10.892;2022-10-22T02:49:56;12.70;99.90
33741;DHT22;20065;48.380;10.892;2022-10-22T02:52:42;12.60;99.90
33741;DHT22;20065;48.380;10.892;2022-10-22T02:55:28;12.60;99.90
33741;DHT22;20065;48.380;10.892;2022-10-22T02:58:14;12.60;99.90
33741;DHT22;20065;48.380;10.892;2022-10-22T03:01:00;12.60;99.90
33741;DHT22;20065;48.380;10.892;2022-10-22T03:03:47;12.70;99.90
33741;DHT22;20065;48.380;10.892;2022-10-22T03:06:33;12.80;99.90
33741;DHT22;20065;48.380;10.892;2022-10-22T03:09:19;13.00;99.90
33741;DHT22;20065;48.380;10.892;2022-10-22T03:12:06;12.80;99.90
33741;DHT22;20065;48.380;10.892;2022-10-22T03:14:53;12.70;99.90
33741;DHT22;20065;48.380;10.892;2022-10-22T03:17:40;12.70;99.90
33741;DHT22;20065;48.380;10.892;2022-10-22T03:20:26;12.70;99.90
33741;DHT22;20065;48.380;10.892;2022-10-22T03:23:14;12.80;99.90
33741;DHT22;20065;48.380;10.892;2022-10-22T03:26:03;13.00;99.90
33741;DHT22;20065;48.380;10.892;2022-10-22T03:28:50;13.00;99.90
33741;DHT22;20065;48.380;10.892;2022-10-22T03:31:36;12.90;99.90
33741;DHT22;20065;48.380;10.892;2022-10-22T03:34:23;12.90;99.90
33741;DHT22;20065;48.380;10.892;2022-10-22T03:37:09;13.00;99.90
33741;DHT22;20065;48.380;10.892;2022-10-22T03:39:55;13.00;99.90
33741;DHT22;20065;48.380;10.892;2022-10-22T03:42:42;13.10;99.90
33741;DHT22;20065;48.380;10.892;2022-10-22T03:45:28;13.20;99.90
33741;DHT22;20065;48.380;10.892;2022-10-22T03:48:15;12.90;99.90
33741;DHT22;20065;48.380;10.892;2022-10-22T03:51:01;12.90;99.90
33741;DHT22;20065;48.380;10.892;2022-10-22T03:53:47;13.00;99.90
33741;DHT22;20065;48.380;10.892;2022-10-22T03:56:33;12.80;99.90
33741;DHT22;20065;48.380;10.892;2022-10-22T03:59:19;12.60;99.90
33741;DHT22;20065;48.380;10.892;2022-10-22T04:02:06;12.50;99.90
33741;DHT22;20065;48.380;10.892;2022-10-22T04:04:53;12.40;99.90
33741;DHT22;20065;48.380;10.892;2022-10-22T04:07:39;12.40;99.90
33741;DHT22;20065;48.380;10.892;2022-10-22T04:10:25;12.30;99.90
33741;DHT22;20065;48.380;10.892;2022-10-22T04:13:11;12.50;99.90
33741;DHT22;20065;48.380;10.892;2022-10-22T04:16:07;12.40;99.90
33741;DHT22;20065;48.380;10.892;2022-10-22T04:18:54;12.40;99.90
33741;DHT22;20065;48.380;10.892;2022-10-22T04:21:40;12.30;99.90
33741;DHT22;20065;48.380;10.892;2022-10-22T04:24:26;12.30;99.90
33741;DHT22;20065;48.380;10.892;2022-10-22T04:27:14;12.30;99.90
33741;DHT22;20065;48.380;10.892;2022-10-22T04:30:02;12.30;99.90
33741;DHT22;20065;48.380;10.892;2022-10-22T04:32:48;12.40;99.90
33741;DHT22;20065;48.380;10.892;2022-10-22T04:35:37;12.40;99.90
33741;DHT22;20065;48.380;10.892;2022-10-22T04:38:24;12.40;99.90
33741;DHT22;20065;48.380;10.892;2022-10-22T04:41:13;12.60;99.90
33741;DHT22;20065;48.380;10.892;2022-10-22T04:44:00;12.60;99.90
33741;DHT22;20065;48.380;10.892;2022-10-22T04:46:46;12.40;99.90
33741;DHT22;20065;48.380;10.892;2022-10-22T04:49:32;12.40;99.90
33741;DHT22;20065;48.380;10.892;2022-10-22T04:52:18;12.30;99.90
33741;DHT22;20065;48.380;10.892;2022-10-22T04:55:05;12.40;99.90
33741;DHT22;20065;48.380;10.892;2022-10-22T04:57:51;12.30;99.90
33741;DHT22;20065;48.380;10.892;2022-10-22T05:00:37;12.50;99.90
33741;DHT22;20065;48.380;10.892;2022-10-22T05:03:24;12.50;99.90
33741;DHT22;20065;48.380;10.892;2022-10-22T05:06:11;12.60;99.90
33741;DHT22;20065;48.380;10.892;2022-10-22T05:09:00;12.60;99.90
33741;DHT22;20065;48.380;10.892;2022-10-22T05:11:49;12.60;99.90
33741;DHT22;20065;48.380;10.892;2022-10-22T05:14:35;12.60;99.90
33741;DHT22;20065;48.380;10.892;2022-10-22T05:17:21;12.40;99.90
33741;DHT22;20065;48.380;10.892;2022-10-22T05:20:08;12.20;99.90
33741;DHT22;20065;48.380;10.892;2022-10-22T05:22:54;12.30;99.90
33741;DHT22;20065;48.380;10.892;2022-10-22T05:25:40;12.30;99.90
33741;DHT22;20065;48.380;10.892;2022-10-22T05:28:26;12.40;99.90
33741;DHT22;20065;48.380;10.892;2022-10-22T05:31:13;12.50;99.90
33741;DHT22;20065;48.380;10.892;2022-10-22T05:34:00;12.60;99.90
33741;DHT22;20065;48.380;10.892;2022-10-22T05:36:46;12.50;99.90
33741;DHT22;20065;48.380;10.892;2022-10-22T05:39:32;12.40;99.90
33741;DHT22;20065;48.380;10.892;2022-10-22T05:42:21;12.60;99.90
33741;DHT22;20065;48.380;10.892;2022-10-22T05:45:07;12.40;99.90
33741;DHT22;20065;48.380;10.892;2022-10-22T05:47:54;12.40;99.90
33741;DHT22;20065;48.380;10.892;2022-10-22T05:50:40;12.40;99.90
33741;DHT22;20065;48.380;10.892;2022-10-22T05:53:26;12.40;99.90
33741;DHT22;20065;48.380;10.892;2022-10-22T05:56:14;12.10;99.90
33741;DHT22;20065;48.380;10.892;2022-10-22T05:59:01;12.20;99.90
33741;DHT22;20065;48.380;10.892;2022-10-22T06:01:47;12.20;99.90
33741;DHT22;20065;48.380;10.892;2022-10-22T06:04:33;12.20;99.90
33741;DHT22;20065;48.380;10.892;2022-10-22T06:07:19;12.40;99.90
33741;DHT22;20065;48.380;10.892;2022-10-22T06:10:14;12.50;99.90
33741;DHT22;20065;48.380;10.892;2022-10-22T06:13:02;12.70;99.90
33741;DHT22;20065;48.380;10.892;2022-10-22T06:15:52;12.50;99.90
33741;DHT22;20065;48.380;10.892;2022-10-22T06:18:38;12.40;99.90
33741;DHT22;20065;48.380;10.892;2022-10-22T06:21:24;12.50;99.90
33741;DHT22;20065;48.380;10.892;2022-10-22T06:24:11;12.30;99.90
33741;DHT22;20065;48.380;10.892;2022-10-22T06:26:57;12.40;99.90
33741;DHT22;20065;48.380;10.892;2022-10-22T06:29:43;12.40;99.90
33741;DHT22;20065;48.380;10.892;2022-10-22T06:32:29;12.60;99.90
33741;DHT22;20065;48.380;10.892;2022-10-22T06:35:16;12.70;99.90
33741;DHT22;20065;48.380;10.892;2022-10-22T06:38:02;12.90;99.90
33741;DHT22;20065;48.380;10.892;2022-10-22T06:40:48;12.90;99.90
33741;DHT22;20065;48.380;10.892;2022-10-22T06:43:34;12.60;99.90
33741;DHT22;20065;48.380;10.892;2022-10-22T06:46:22;12.70;99.90
33741;DHT22;20065;48.380;10.892;2022-10-22T06:49:11;12.70;99.90
33741;DHT22;20065;48.380;10.892;2022-10-22T06:51:59;13.00;99.90
33741;DHT22;20065;48.380;10.892;2022-10-22T06:54:45;12.70;99.90
33741;DHT22;20065;48.380;10.892;2022-10-22T06:57:31;12.60;99.90
33741;DHT22;20065;48.380;10.892;2022-10-22T07:00:17;12.70;99.90
33741;DHT22;20065;48.380;10.892;2022-10-22T07:03:03;12.50;99.90
33741;DHT22;20065;48.380;10.892;2022-10-22T07:05:50;12.60;99.90
33741;DHT22;20065;48.380;10.892;2022-10-22T07:08:38;12.50;99.90
33741;DHT22;20065;48.380;10.892;2022-10-22T07:11:29;12.50;99.90
33741;DHT22;20065;48.380;10.892;2022-10-22T07:14:16;12.50;99.90
33741;DHT22;20065;48.380;10.892;2022-10-22T07:17:02;12.70;99.90
33741;DHT22;20065;48.380;10.892;2022-10-22T07:19:48;12.80;99.90
33741;DHT22;20065;48.380;10.892;2022-10-22T07:22:34;12.80;99.90
33741;DHT22;20065;48.380;10.892;2022-10-22T07:25:21;12.90;99.90
33741;DHT22;20065;48.380;10.892;2022-10-22T07:28:07;13.00;99.90
33741;DHT22;20065;48.380;10.892;2022-10-22T07:30:53;13.30;99.90
33741;DHT22;20065;48.380;10.892;2022-10-22T07:33:40;13.50;99.90
33741;DHT22;20065;48.380;10.892;2022-10-22T07:36:26;13.50;99.90
33741;DHT22;20065;48.380;10.892;2022-10-22T07:39:12;13.70;99.90
33741;DHT22;20065;48.380;10.892;2022-10-22T07:41:59;13.70;99.90
33741;DHT22;20065;48.380;10.892;2022-10-22T07:44:46;13.90;99.90
33741;DHT22;20065;48.380;10.892;2022-10-22T07:47:32;13.90;99.90
33741;DHT22;20065;48.380;10.892;2022-10-22T07:50:18;13.50;99.90
33741;DHT22;20065;48.380;10.892;2022-10-22T07:53:04;13.60;99.90
33741;DHT22;20065;48.380;10.892;2022-10-22T07:55:51;13.50;99.90
33741;DHT22;20065;48.380;10.892;2022-10-22T07:58:38;13.50;99.90
33741;DHT22;20065;48.380;10.892;2022-10-22T08:01:24;13.60;99.90
33741;DHT22;20065;48.380;10.892;2022-10-22T08:04:10;13.80;99.90
33741;DHT22;20065;48.380;10.892;2022-10-22T08:06:57;13.60;99.90
33741;DHT22;20065;48.380;10.892;2022-10-22T08:09:43;13.70;99.90
33741;DHT22;20065;48.380;10.892;2022-10-22T08:12:29;14.00;99.90
33741;DHT22;20065;48.380;10.892;2022-10-22T08:15:16;14.00;99.90
33741;DHT22;20065;48.380;10.892;2022-10-22T08:18:03;13.90;99.90
33741;DHT22;20065;48.380;10.892;2022-10-22T08:20:50;13.70;99.90
33741;DHT22;20065;48.380;10.892;2022-10-22T08:23:36;13.70;99.90
33741;DHT22;20065;48.380;10.892;2022-10-22T08:26:23;13.80;99.90
33741;DHT22;20065;48.380;10.892;2022-10-22T08:29:09;14.10;99.90
33741;DHT22;20065;48.380;10.892;2022-10-22T08:31:55;14.20;99.90
33741;DHT22;20065;48.380;10.892;2022-10-22T08:34:43;14.30;99.90
33741;DHT22;20065;48.380;10.892;2022-10-22T08:37:29;14.40;99.90
33741;DHT22;20065;48.380;10.892;2022-10-22T08:40:31;14.40;99.90
33741;DHT22;20065;48.380;10.892;2022-10-22T08:49:31;14.60;99.90
33741;DHT22;20065;48.380;10.892;2022-10-22T08:52:18;14.40;99.90
33741;DHT22;20065;48.380;10.892;2022-10-22T08:55:12;14.40;99.90
33741;DHT22;20065;48.380;10.892;2022-10-22T08:58:24;14.50;99.90
33741;DHT22;20065;48.380;10.892;2022-10-22T09:01:23;14.30;99.90
33741;DHT22;20065;48.380;10.892;2022-10-22T09:07:17;14.50;99.90
33741;DHT22;20065;48.380;10.892;2022-10-22T09:10:04;14.50;99.90
33741;DHT22;20065;48.380;10.892;2022-10-22T09:12:50;14.30;99.90
33741;DHT22;20065;48.380;10.892;2022-10-22T09:15:37;14.50;99.90
33741;DHT22;20065;48.380;10.892;2022-10-22T09:18:29;14.70;99.90
33741;DHT22;20065;48.380;10.892;2022-10-22T09:24:33;14.90;99.90
33741;DHT22;20065;48.380;10.892;2022-10-22T09:27:28;14.90;99.90
33741;DHT22;20065;48.380;10.892;2022-10-22T09:30:22;14.90;99.90
33741;DHT22;20065;48.380;10.892;2022-10-22T09:33:12;15.00;99.90
33741;DHT22;20065;48.380;10.892;2022-10-22T09:36:00;15.00;99.90
33741;DHT22;20065;48.380;10.892;2022-10-22T09:38:52;15.20;99.90
33741;DHT22;20065;48.380;10.892;2022-10-22T09:41:38;15.20;99.90
33741;DHT22;20065;48.380;10.892;2022-10-22T09:44:24;15.10;99.90
33741;DHT22;20065;48.380;10.892;2022-10-22T09:47:36;14.90;99.90
33741;DHT22;20065;48.380;10.892;2022-10-22T09:50:43;14.90;99.90
33741;DHT22;20065;48.380;10.892;2022-10-22T09:53:38;14.80;99.90
33741;DHT22;20065;48.380;10.892;2022-10-22T09:56:35;14.90;99.90
33741;DHT22;20065;48.380;10.892;2022-10-22T09:59:31;14.90;99.90
33741;DHT22;20065;48.380;10.892;2022-10-22T10:02:21;15.10;99.90
33741;DHT22;20065;48.380;10.892;2022-10-22T10:05:23;15.20;99.90
33741;DHT22;20065;48.380;10.892;2022-10-22T10:08:14;14.90;99.90
33741;DHT22;20065;48.380;10.892;2022-10-22T10:11:09;14.70;99.90
33741;DHT22;20065;48.380;10.892;2022-10-22T10:23:53;15.00;99.90
33741;DHT22;20065;48.380;10.892;2022-10-22T10:27:01;14.90;99.90
33741;DHT22;20065;48.380;10.892;2022-10-22T10:30:15;14.90;99.90
33741;DHT22;20065;48.380;10.892;2022-10-22T10:39:02;15.10;99.90
33741;DHT22;20065;48.380;10.892;2022-10-22T10:50:49;15.30;99.90
33741;DHT22;20065;48.380;10.892;2022-10-22T10:56:48;15.30;99.90
33741;DHT22;20065;48.380;10.892;2022-10-22T10:59:44;15.40;99.90
33741;DHT22;20065;48.380;10.892;2022-10-22T11:05:40;15.40;99.90
33741;DHT22;20065;48.380;10.892;2022-10-22T11:08:33;15.40;99.90
33741;DHT22;20065;48.380;10.892;2022-10-22T11:11:29;15.50;99.90
33741;DHT22;20065;48.380;10.892;2022-10-22T11:14:39;15.70;99.90
33741;DHT22;20065;48.380;10.892;2022-10-22T11:17:36;15.90;99.90
33741;DHT22;20065;48.380;10.892;2022-10-22T11:20:31;15.90;99.90
33741;DHT22;20065;48.380;10.892;2022-10-22T11:23:35;15.90;99.90
33741;DHT22;20065;48.380;10.892;2022-10-22T11:26:48;15.80;99.90
33741;DHT22;20065;48.380;10.892;2022-10-22T11:29:43;16.10;99.90
33741;DHT22;20065;48.380;10.892;2022-10-22T11:32:33;16.50;99.90
33741;DHT22;20065;48.380;10.892;2022-10-22T11:35:24;16.80;99.90
33741;DHT22;20065;48.380;10.892;2022-10-22T11:38:15;17.10;99.90
33741;DHT22;20065;48.380;10.892;2022-10-22T11:41:15;16.60;99.90
33741;DHT22;20065;48.380;10.892;2022-10-22T11:44:09;16.60;99.90
33741;DHT22;20065;48.380;10.892;2022-10-22T11:47:02;16.80;99.90
33741;DHT22;20065;48.380;10.892;2022-10-22T11:55:55;16.90;99.90
33741;DHT22;20065;48.380;10.892;2022-10-22T11:58:43;16.90;99.90
33741;DHT22;20065;48.380;10.892;2022-10-22T12:01:41;17.00;99.90
33741;DHT22;20065;48.380;10.892;2022-10-22T12:04:40;17.30;99.90
33741;DHT22;20065;48.380;10.892;2022-10-22T12:07:54;17.40;99.90
33741;DHT22;20065;48.380;10.892;2022-10-22T12:11:04;17.60;99.90
33741;DHT22;20065;48.380;10.892;2022-10-22T12:17:09;17.80;99.90
33741;DHT22;20065;48.380;10.892;2022-10-22T12:20:06;17.70;99.90
33741;DHT22;20065;48.380;10.892;2022-10-22T12:22:59;17.70;99.90
33741;DHT22;20065;48.380;10.892;2022-10-22T12:25:47;17.60;99.90
33741;DHT22;20065;48.380;10.892;2022-10-22T12:28:38;17.50;99.90
33741;DHT22;20065;48.380;10.892;2022-10-22T12:31:26;17.20;99.90
33741;DHT22;20065;48.380;10.892;2022-10-22T12:34:19;17.10;99.90
33741;DHT22;20065;48.380;10.892;2022-10-22T12:37:13;17.00;99.90
33741;DHT22;20065;48.380;10.892;2022-10-22T12:40:01;16.90;99.90
33741;DHT22;20065;48.380;10.892;2022-10-22T12:43:14;17.10;99.90
33741;DHT22;20065;48.380;10.892;2022-10-22T12:46:01;17.20;99.90
33741;DHT22;20065;48.380;10.892;2022-10-22T12:48:47;17.20;99.90
33741;DHT22;20065;48.380;10.892;2022-10-22T12:51:33;17.40;99.90
33741;DHT22;20065;48.380;10.892;2022-10-22T12:54:30;17.30;99.90
33741;DHT22;20065;48.380;10.892;2022-10-22T12:57:19;17.40;99.90
33741;DHT22;20065;48.380;10.892;2022-10-22T13:00:25;17.40;99.90
33741;DHT22;20065;48.380;10.892;2022-10-22T13:03:33;17.50;99.90
33741;DHT22;20065;48.380;10.892;2022-10-22T13:09:17;17.50;99.90
33741;DHT22;20065;48.380;10.892;2022-10-22T13:12:05;17.60;99.90
33741;DHT22;20065;48.380;10.892;2022-10-22T13:14:52;17.50;99.90
33741;DHT22;20065;48.380;10.892;2022-10-22T13:17:40;17.40;99.90
33741;DHT22;20065;48.380;10.892;2022-10-22T13:20:27;17.50;99.90
33741;DHT22;20065;48.380;10.892;2022-10-22T13:23:18;17.60;99.90
33741;DHT22;20065;48.380;10.892;2022-10-22T13:26:13;17.50;99.90
33741;DHT22;20065;48.380;10.892;2022-10-22T13:29:02;17.70;99.90
33741;DHT22;20065;48.380;10.892;2022-10-22T13:31:54;17.80;99.90
33741;DHT22;20065;48.380;10.892;2022-10-22T13:34:40;17.70;99.90
33741;DHT22;20065;48.380;10.892;2022-10-22T13:37:31;17.70;99.90
33741;DHT22;20065;48.380;10.892;2022-10-22T13:40:18;17.70;99.90
33741;DHT22;20065;48.380;10.892;2022-10-22T13:43:04;17.90;99.90
33741;DHT22;20065;48.380;10.892;2022-10-22T13:45:57;17.90;99.90
33741;DHT22;20065;48.380;10.892;2022-10-22T13:48:44;17.90;99.90
33741;DHT22;20065;48.380;10.892;2022-10-22T13:51:33;17.80;99.90
33741;DHT22;20065;48.380;10.892;2022-10-22T13:54:22;17.80;99.90
33741;DHT22;20065;48.380;10.892;2022-10-22T13:57:09;18.00;99.90
33741;DHT22;20065;48.380;10.892;2022-10-22T13:59:55;17.90;99.90
33741;DHT22;20065;48.380;10.892;2022-10-22T14:03:19;17.70;99.90
33741;DHT22;20065;48.380;10.892;2022-10-22T14:06:10;17.80;99.90
33741;DHT22;20065;48.380;10.892;2022-10-22T14:09:02;17.70;99.90
33741;DHT22;20065;48.380;10.892;2022-10-22T14:11:49;17.80;99.90
33741;DHT22;20065;48.380;10.892;2022-10-22T14:14:35;17.80;99.90
33741;DHT22;20065;48.380;10.892;2022-10-22T14:17:23;17.90;99.90
33741;DHT22;20065;48.380;10.892;2022-10-22T14:20:18;18.00;99.90
33741;DHT22;20065;48.380;10.892;2022-10-22T14:23:19;18.00;99.90
33741;DHT22;20065;48.380;10.892;2022-10-22T14:26:05;18.00;99.90
33741;DHT22;20065;48.380;10.892;2022-10-22T14:28:53;17.80;99.90
33741;DHT22;20065;48.380;10.892;2022-10-22T14:31:40;17.80;99.90
33741;DHT22;20065;48.380;10.892;2022-10-22T14:34:30;17.80;99.90
33741;DHT22;20065;48.380;10.892;2022-10-22T14:37:18;17.90;99.90
33741;DHT22;20065;48.380;10.892;2022-10-22T14:40:06;17.80;99.90
33741;DHT22;20065;48.380;10.892;2022-10-22T14:42:52;17.90;99.90
33741;DHT22;20065;48.380;10.892;2022-10-22T14:45:38;17.90;99.90
33741;DHT22;20065;48.380;10.892;2022-10-22T14:48:24;17.90;99.90
33741;DHT22;20065;48.380;10.892;2022-10-22T14:51:14;17.80;99.90
33741;DHT22;20065;48.380;10.892;2022-10-22T14:54:00;17.80;99.90
33741;DHT22;20065;48.380;10.892;2022-10-22T14:56:50;17.80;99.90
33741;DHT22;20065;48.380;10.892;2022-10-22T14:59:36;17.70;99.90
33741;DHT22;20065;48.380;10.892;2022-10-22T15:02:22;17.70;99.90
33741;DHT22;20065;48.380;10.892;2022-10-22T15:05:09;17.70;99.90
33741;DHT22;20065;48.380;10.892;2022-10-22T15:07:58;17.70;99.90
33741;DHT22;20065;48.380;10.892;2022-10-22T15:10:45;17.60;99.90
33741;DHT22;20065;48.380;10.892;2022-10-22T15:13:31;17.60;99.90
33741;DHT22;20065;48.380;10.892;2022-10-22T15:16:17;17.60;99.90
33741;DHT22;20065;48.380;10.892;2022-10-22T15:19:04;17.70;99.90
33741;DHT22;20065;48.380;10.892;2022-10-22T15:21:50;17.70;99.90
33741;DHT22;20065;48.380;10.892;2022-10-22T15:24:37;17.70;99.90
33741;DHT22;20065;48.380;10.892;2022-10-22T15:27:24;17.80;99.90
33741;DHT22;20065;48.380;10.892;2022-10-22T15:30:10;17.70;99.90
33741;DHT22;20065;48.380;10.892;2022-10-22T15:32:58;17.50;99.90
33741;DHT22;20065;48.380;10.892;2022-10-22T15:35:44;17.50;99.90
33741;DHT22;20065;48.380;10.892;2022-10-22T15:38:31;17.50;99.90
33741;DHT22;20065;48.380;10.892;2022-10-22T15:41:17;17.50;99.90
33741;DHT22;20065;48.380;10.892;2022-10-22T15:44:03;17.40;99.90
33741;DHT22;20065;48.380;10.892;2022-10-22T15:46:51;17.20;99.90
33741;DHT22;20065;48.380;10.892;2022-10-22T15:49:39;17.30;99.90
33741;DHT22;20065;48.380;10.892;2022-10-22T15:52:26;17.30;99.90
33741;DHT22;20065;48.380;10.892;2022-10-22T15:55:12;17.20;99.90
33741;DHT22;20065;48.380;10.892;2022-10-22T15:57:59;17.10;99.90
33741;DHT22;20065;48.380;10.892;2022-10-22T16:00:45;17.10;99.90
33741;DHT22;20065;48.380;10.892;2022-10-22T16:03:31;17.00;99.90
33741;DHT22;20065;48.380;10.892;2022-10-22T16:06:17;16.90;99.90
33741;DHT22;20065;48.380;10.892;2022-10-22T16:09:07;16.90;99.90
33741;DHT22;20065;48.380;10.892;2022-10-22T16:11:54;16.90;99.90
33741;DHT22;20065;48.380;10.892;2022-10-22T16:14:40;17.00;99.90
33741;DHT22;20065;48.380;10.892;2022-10-22T16:17:28;16.80;99.90
33741;DHT22;20065;48.380;10.892;2022-10-22T16:20:15;16.70;99.90
33741;DHT22;20065;48.380;10.892;2022-10-22T16:23:01;16.50;99.90
33741;DHT22;20065;48.380;10.892;2022-10-22T16:25:47;16.40;99.90
33741;DHT22;20065;48.380;10.892;2022-10-22T16:28:33;16.40;99.90
33741;DHT22;20065;48.380;10.892;2022-10-22T16:31:20;16.30;99.90
33741;DHT22;20065;48.380;10.892;2022-10-22T16:34:06;16.20;99.90
33741;DHT22;20065;48.380;10.892;2022-10-22T16:36:52;16.20;99.90
33741;DHT22;20065;48.380;10.892;2022-10-22T16:39:41;16.30;99.90
33741;DHT22;20065;48.380;10.892;2022-10-22T16:42:27;16.30;99.90
33741;DHT22;20065;48.380;10.892;2022-10-22T16:45:13;16.10;99.90
33741;DHT22;20065;48.380;10.892;2022-10-22T16:47:59;16.20;99.90
33741;DHT22;20065;48.380;10.892;2022-10-22T16:50:45;16.20;99.90
33741;DHT22;20065;48.380;10.892;2022-10-22T16:53:32;16.20;99.90
33741;DHT22;20065;48.380;10.892;2022-10-22T16:56:18;16.20;99.90
33741;DHT22;20065;48.380;10.892;2022-10-22T16:59:05;16.00;99.90
33741;DHT22;20065;48.380;10.892;2022-10-22T17:01:51;15.90;99.90
33741;DHT22;20065;48.380;10.892;2022-10-22T17:04:39;15.80;99.90
33741;DHT22;20065;48.380;10.892;2022-10-22T17:07:25;15.70;99.90
33741;DHT22;20065;48.380;10.892;2022-10-22T17:10:11;15.50;99.90
33741;DHT22;20065;48.380;10.892;2022-10-22T17:12:57;15.50;99.90
33741;DHT22;20065;48.380;10.892;2022-10-22T17:15:44;15.50;99.90
33741;DHT22;20065;48.380;10.892;2022-10-22T17:18:30;15.40;99.90
33741;DHT22;20065;48.380;10.892;2022-10-22T17:21:17;15.30;99.90
33741;DHT22;20065;48.380;10.892;2022-10-22T17:24:08;15.20;99.90
33741;DHT22;20065;48.380;10.892;2022-10-22T17:26:54;15.10;99.90
33741;DHT22;20065;48.380;10.892;2022-10-22T17:29:40;15.10;99.90
33741;DHT22;20065;48.380;10.892;2022-10-22T17:32:27;15.10;99.90
33741;DHT22;20065;48.380;10.892;2022-10-22T17:35:14;15.10;99.90
33741;DHT22;20065;48.380;10.892;2022-10-22T17:38:01;15.00;99.90
33741;DHT22;20065;48.380;10.892;2022-10-22T17:40:47;15.00;99.90
33741;DHT22;20065;48.380;10.892;2022-10-22T17:43:34;15.00;99.90
33741;DHT22;20065;48.380;10.892;2022-10-22T17:46:26;14.90;99.90
33741;DHT22;20065;48.380;10.892;2022-10-22T17:49:18;14.90;99.90
33741;DHT22;20065;48.380;10.892;2022-10-22T17:52:04;14.90;99.90
33741;DHT22;20065;48.380;10.892;2022-10-22T17:54:51;14.80;99.90
33741;DHT22;20065;48.380;10.892;2022-10-22T17:57:38;14.70;99.90
33741;DHT22;20065;48.380;10.892;2022-10-22T18:00:24;14.70;99.90
33741;DHT22;20065;48.380;10.892;2022-10-22T18:03:11;14.60;99.90
33741;DHT22;20065;48.380;10.892;2022-10-22T18:06:07;14.60;99.90
33741;DHT22;20065;48.380;10.892;2022-10-22T18:08:55;14.60;99.90
33741;DHT22;20065;48.380;10.892;2022-10-22T18:11:41;14.50;99.90
33741;DHT22;20065;48.380;10.892;2022-10-22T18:14:27;14.50;99.90
33741;DHT22;20065;48.380;10.892;2022-10-22T18:17:14;14.50;99.90
33741;DHT22;20065;48.380;10.892;2022-10-22T18:20:01;14.50;99.90
33741;DHT22;20065;48.380;10.892;2022-10-22T18:22:47;14.60;99.90
33741;DHT22;20065;48.380;10.892;2022-10-22T18:25:37;14.60;99.90
33741;DHT22;20065;48.380;10.892;2022-10-22T18:28:23;14.60;99.90
33741;DHT22;20065;48.380;10.892;2022-10-22T18:31:16;14.50;99.90
33741;DHT22;20065;48.380;10.892;2022-10-22T18:34:03;14.50;99.90
33741;DHT22;20065;48.380;10.892;2022-10-22T18:36:49;14.50;99.90
33741;DHT22;20065;48.380;10.892;2022-10-22T18:39:36;14.40;99.90
33741;DHT22;20065;48.380;10.892;2022-10-22T18:42:22;14.40;99.90
33741;DHT22;20065;48.380;10.892;2022-10-22T18:45:08;14.30;99.90
33741;DHT22;20065;48.380;10.892;2022-10-22T18:47:56;14.30;99.90
33741;DHT22;20065;48.380;10.892;2022-10-22T18:50:46;14.20;99.90
33741;DHT22;20065;48.380;10.892;2022-10-22T18:53:33;14.20;99.90